logo
Rechercher aéroport 
image banner adimage banner adimage banner ad
image banner ad

YPNA - Pinnarendi

Situé à Minnamoolka, Australia

ICAO - , IATA -

Données fournies par Airmate  

Information générale

Coordonnées: S18°2'18" E144°52'59"
Élévation : 2500 feet MSL.
Variation magnétique : 7° East
Voir autres Aéroports à Queensland

Données opérationnelles

Special qualification required
Heure actuelle UTC:
Heure actuelle locale:
Météo à : - ( 0 km )
METAR: KNSI 281231Z AUTO 28005KT 8SM SCT002 11/10 A3000 RMK AO2 T01060100 $
Voir NOTAMs / SUP AIP / TFR affectant cet aéroport [VIEW]
Fréquences de communication: [VIEW]

Pistes:

Identifiant RWYQFULongueur (ft)Largeur (ft)SurfaceLDA (ft)
09100°396163DIRT
27280°396163DIRT

Coordonnées de l'aéroport

Adresse: Minnamoolka Australia

Vue satellite de YPNA